createdAt,value
2018-06-11T00:01:26.694Z,10.40
2018-06-11T00:03:54.173Z,10.93
2018-06-11T00:06:21.593Z,10.60
2018-06-11T00:08:49.125Z,10.17
2018-06-11T00:11:16.579Z,10.13
2018-06-11T00:13:44.045Z,10.23
2018-06-11T00:16:11.560Z,10.57
2018-06-11T00:18:39.017Z,10.33
2018-06-11T00:21:06.568Z,10.37
2018-06-11T00:23:34.059Z,9.93
2018-06-11T00:26:01.588Z,10.03
2018-06-11T00:28:28.990Z,10.47
2018-06-11T00:30:56.588Z,10.87
2018-06-11T00:33:24.011Z,11.50
2018-06-11T00:35:51.472Z,10.70
2018-06-11T00:38:18.939Z,10.37
2018-06-11T00:40:46.303Z,10.97
2018-06-11T00:43:13.842Z,10.80
2018-06-11T00:45:41.250Z,10.30
2018-06-11T00:48:08.765Z,10.40
2018-06-11T00:50:36.213Z,10.37
2018-06-11T00:53:03.635Z,10.40
2018-06-11T00:55:42.549Z,10.43
2018-06-11T00:58:10.031Z,10.20
2018-06-11T01:00:37.452Z,10.20
2018-06-11T01:03:05.033Z,10.60
2018-06-11T01:05:32.424Z,10.40
2018-06-11T01:07:59.867Z,9.93
2018-06-11T01:10:27.411Z,10.00
2018-06-11T01:12:54.840Z,9.80
2018-06-11T01:15:22.325Z,11.03
2018-06-11T01:17:49.683Z,10.37
2018-06-11T01:20:17.523Z,11.07
2018-06-11T01:22:45.145Z,10.23
2018-06-11T01:25:12.631Z,10.23
2018-06-11T01:27:40.158Z,10.77
2018-06-11T01:30:07.620Z,11.07
2018-06-11T01:32:35.091Z,10.00
2018-06-11T01:35:02.592Z,11.10
2018-06-11T01:37:30.137Z,10.70
2018-06-11T01:39:57.728Z,10.97
2018-06-11T01:42:25.134Z,10.90
2018-06-11T01:44:52.555Z,10.57
2018-06-11T01:47:19.925Z,10.20
2018-06-11T01:49:47.369Z,10.80
2018-06-11T01:52:14.912Z,11.70
2018-06-11T01:54:42.287Z,10.30
2018-06-11T01:57:09.785Z,10.27
2018-06-11T01:59:37.171Z,10.43
2018-06-11T02:02:04.654Z,10.47
2018-06-11T02:04:32.099Z,10.07
2018-06-11T02:06:59.656Z,11.00
2018-06-11T02:09:27.059Z,10.13
2018-06-11T02:11:54.562Z,10.90
2018-06-11T02:14:22.016Z,10.03
2018-06-11T02:16:49.385Z,10.40
2018-06-11T02:19:16.750Z,11.37
2018-06-11T02:21:44.102Z,10.43
2018-06-11T02:24:11.492Z,11.13
2018-06-11T02:26:39.038Z,10.10
2018-06-11T02:29:06.480Z,10.40
2018-06-11T02:31:34.532Z,10.07
2018-06-11T02:34:02.463Z,9.03
2018-06-11T02:36:29.996Z,10.17
2018-06-11T02:38:57.582Z,9.90
2018-06-11T02:41:25.078Z,10.20
2018-06-11T02:43:52.931Z,11.40
2018-06-11T02:46:20.625Z,10.60
2018-06-11T02:48:48.043Z,10.30
2018-06-11T02:51:15.537Z,9.90
2018-06-11T02:53:43.012Z,9.80
2018-06-11T02:56:10.500Z,10.03
2018-06-11T02:58:37.913Z,9.67
2018-06-11T03:01:05.398Z,10.77
2018-06-11T03:03:32.839Z,10.70
2018-06-11T03:06:00.215Z,10.10
2018-06-11T03:08:27.747Z,10.07
2018-06-11T03:10:55.224Z,11.00
2018-06-11T03:13:22.798Z,10.27
2018-06-11T03:15:50.261Z,10.13
2018-06-11T03:18:17.663Z,10.27
2018-06-11T03:20:45.153Z,10.00
2018-06-11T03:23:12.592Z,11.60
2018-06-11T03:25:40.198Z,10.27
2018-06-11T03:28:07.656Z,11.03
2018-06-11T03:30:35.261Z,9.90
2018-06-11T03:33:02.711Z,10.80
2018-06-11T03:35:30.169Z,11.10
2018-06-11T03:37:57.658Z,10.70
2018-06-11T03:40:25.254Z,11.37
2018-06-11T03:42:52.699Z,9.80
2018-06-11T03:45:20.210Z,12.90
2018-06-11T03:47:47.700Z,11.47
2018-06-11T03:50:15.169Z,12.17
2018-06-11T03:52:42.619Z,10.83
2018-06-11T03:55:10.054Z,11.80
2018-06-11T03:57:37.568Z,11.03
2018-06-11T04:00:05.072Z,11.20
2018-06-11T04:02:32.610Z,11.30
2018-06-11T04:05:00.059Z,11.20
2018-06-11T04:07:27.615Z,11.57
2018-06-11T04:09:55.139Z,10.43
2018-06-11T04:12:22.695Z,10.67
2018-06-11T04:14:50.396Z,11.20
2018-06-11T04:17:17.919Z,10.67
2018-06-11T04:19:45.597Z,13.00
2018-06-11T04:22:13.160Z,11.13
2018-06-11T04:24:40.622Z,12.03
2018-06-11T04:27:08.041Z,12.90
2018-06-11T04:29:35.500Z,12.37
2018-06-11T04:32:02.969Z,12.20
2018-06-11T04:34:30.362Z,12.00
2018-06-11T04:36:57.942Z,12.87
2018-06-11T04:39:25.508Z,12.43
2018-06-11T04:41:52.941Z,11.83
2018-06-11T04:44:20.445Z,13.43
2018-06-11T04:46:47.864Z,12.20
2018-06-11T04:49:15.265Z,13.50
2018-06-11T04:51:42.779Z,13.77
2018-06-11T04:54:10.198Z,13.33
2018-06-11T04:56:37.627Z,14.20
2018-06-11T04:59:05.138Z,14.00
2018-06-11T05:01:32.560Z,16.43
2018-06-11T05:04:00.020Z,18.30
2018-06-11T05:06:27.502Z,17.80
2018-06-11T05:08:55.006Z,19.87
2018-06-11T05:11:22.495Z,22.33
2018-06-11T05:13:49.918Z,22.17
2018-06-11T05:16:17.348Z,21.80
2018-06-11T05:18:44.792Z,24.13
2018-06-11T05:21:12.290Z,25.57
2018-06-11T05:23:40.100Z,23.97
2018-06-11T05:26:07.602Z,25.10
2018-06-11T05:28:34.909Z,23.77
2018-06-11T05:31:02.351Z,24.80
2018-06-11T05:33:29.830Z,24.77
2018-06-11T05:35:57.310Z,24.50
2018-06-11T05:38:24.755Z,25.73
2018-06-11T05:40:52.298Z,26.87
2018-06-11T05:43:19.799Z,25.43
2018-06-11T05:45:47.129Z,28.03
2018-06-11T05:48:14.584Z,28.03
2018-06-11T05:50:42.041Z,28.27
2018-06-11T05:53:09.524Z,26.87
2018-06-11T05:55:36.959Z,28.13
2018-06-11T05:58:04.494Z,27.37
2018-06-11T06:00:31.926Z,26.47
2018-06-11T06:02:59.321Z,28.77
2018-06-11T06:05:26.732Z,29.53
2018-06-11T06:07:54.123Z,27.73
2018-06-11T06:10:21.594Z,27.83
2018-06-11T06:12:49.098Z,29.50
2018-06-11T06:15:16.535Z,29.50
2018-06-11T06:17:44.022Z,29.40
2018-06-11T06:20:11.409Z,28.70
2018-06-11T06:22:38.918Z,29.17
2018-06-11T06:25:06.462Z,28.47
2018-06-11T06:27:33.972Z,28.10
2018-06-11T06:30:01.473Z,27.53
2018-06-11T06:32:28.989Z,29.40
2018-06-11T06:34:56.513Z,25.70
2018-06-11T06:37:23.933Z,28.00
2018-06-11T06:39:51.427Z,26.00
2018-06-11T06:42:18.979Z,25.60
2018-06-11T06:44:46.444Z,27.20
2018-06-11T06:47:13.899Z,27.50
2018-06-11T06:49:41.589Z,30.80
2018-06-11T06:52:09.170Z,31.77
2018-06-11T06:54:36.549Z,30.70
2018-06-11T06:57:04.044Z,32.87
2018-06-11T06:59:31.489Z,31.67
2018-06-11T07:01:59.121Z,33.10
2018-06-11T07:04:26.482Z,34.50
2018-06-11T07:06:53.997Z,34.57
2018-06-11T07:09:21.464Z,34.20
2018-06-11T07:11:48.850Z,34.63
2018-06-11T07:14:16.724Z,32.83
2018-06-11T07:16:44.132Z,34.33
2018-06-11T07:19:11.603Z,35.13
2018-06-11T07:21:38.998Z,32.27
2018-06-11T07:24:06.546Z,34.17
2018-06-11T07:26:34.556Z,34.43
2018-06-11T07:29:02.073Z,32.70
2018-06-11T07:31:29.539Z,34.67
2018-06-11T07:33:57.069Z,35.30
2018-06-11T07:36:24.494Z,36.60
2018-06-11T07:38:52.019Z,35.80
2018-06-11T07:41:19.493Z,37.37
2018-06-11T07:43:46.920Z,36.83
2018-06-11T07:46:14.559Z,39.20
2018-06-11T07:48:42.141Z,40.60
2018-06-11T07:51:09.809Z,36.23
2018-06-11T07:53:37.693Z,37.00
2018-06-11T07:56:05.245Z,38.70
2018-06-11T07:58:32.780Z,41.97
2018-06-11T08:01:00.343Z,40.20
2018-06-11T08:03:27.909Z,41.63
2018-06-11T08:05:55.252Z,40.27
2018-06-11T08:08:22.736Z,40.90
2018-06-11T08:10:50.330Z,42.60
2018-06-11T08:13:17.827Z,40.90
2018-06-11T08:15:45.340Z,41.67
2018-06-11T08:18:12.735Z,41.17
2018-06-11T08:20:40.337Z,42.93
2018-06-11T08:23:07.943Z,43.47
2018-06-11T08:25:35.454Z,44.13
2018-06-11T08:28:02.961Z,42.60
2018-06-11T08:30:30.417Z,43.67
2018-06-11T08:32:57.993Z,43.90
2018-06-11T08:35:25.488Z,45.57
2018-06-11T08:37:52.962Z,47.67
2018-06-11T08:40:20.370Z,45.60
2018-06-11T08:42:47.923Z,46.20
2018-06-11T08:45:15.449Z,45.47
2018-06-11T08:47:42.853Z,47.40
2018-06-11T08:50:11.116Z,45.77
2018-06-11T08:52:38.810Z,47.40
2018-06-11T08:55:06.304Z,45.90
2018-06-11T08:57:33.836Z,43.87
2018-06-11T09:00:01.391Z,45.60
2018-06-11T09:02:28.914Z,46.30
2018-06-11T09:04:56.310Z,47.33
2018-06-11T09:07:23.812Z,46.00
2018-06-11T09:09:51.368Z,44.87
2018-06-11T09:12:18.910Z,45.60
2018-06-11T09:14:48.114Z,44.40
2018-06-11T09:17:15.651Z,44.00
2018-06-11T09:19:43.125Z,41.57
2018-06-11T09:22:10.644Z,42.70
2018-06-11T09:24:38.078Z,41.97
2018-06-11T09:27:05.608Z,43.60
2018-06-11T09:29:33.140Z,43.37
2018-06-11T09:32:00.686Z,38.93
2018-06-11T09:34:28.465Z,39.53
2018-06-11T09:36:56.019Z,40.77
2018-06-11T09:39:23.593Z,40.67
2018-06-11T09:41:51.045Z,40.87
2018-06-11T09:44:18.444Z,41.53
2018-06-11T09:46:46.023Z,37.67
2018-06-11T09:49:13.575Z,43.37
2018-06-11T09:51:41.140Z,40.17
2018-06-11T09:54:08.572Z,37.90
2018-06-11T09:56:36.183Z,37.73
2018-06-11T09:59:03.664Z,35.20
2018-06-11T10:01:31.105Z,34.37
2018-06-11T10:03:58.633Z,35.13
2018-06-11T10:06:26.197Z,36.57
2018-06-11T10:08:53.629Z,35.80
2018-06-11T10:11:21.068Z,34.50
2018-06-11T10:13:48.559Z,35.30
2018-06-11T10:16:15.946Z,34.83
2018-06-11T10:18:43.385Z,37.90
2018-06-11T10:21:10.927Z,37.83
2018-06-11T10:23:38.469Z,38.20
2018-06-11T10:26:06.015Z,39.50
2018-06-11T10:28:33.619Z,39.83
2018-06-11T10:31:01.071Z,38.13
2018-06-11T10:33:28.568Z,37.57
2018-06-11T10:35:56.113Z,40.90
2018-06-11T10:38:23.759Z,41.57
2018-06-11T10:40:51.307Z,41.13
2018-06-11T10:43:18.739Z,37.60
2018-06-11T10:45:46.284Z,39.40
2018-06-11T10:48:13.765Z,39.50
2018-06-11T10:50:41.177Z,39.90
2018-06-11T10:53:08.631Z,40.80
2018-06-11T10:55:36.022Z,40.63
2018-06-11T10:58:03.586Z,42.97
2018-06-11T11:00:31.063Z,40.47
2018-06-11T11:02:58.548Z,41.70
2018-06-11T11:05:26.107Z,39.20
2018-06-11T11:07:53.540Z,38.07
2018-06-11T11:10:21.062Z,38.50
2018-06-11T11:12:48.548Z,33.63
2018-06-11T11:15:15.977Z,37.73
2018-06-11T11:17:43.389Z,35.63
2018-06-11T11:20:10.972Z,37.40
2018-06-11T11:22:38.523Z,37.70
2018-06-11T11:25:06.091Z,39.40
2018-06-11T11:27:33.511Z,38.37
2018-06-11T11:30:00.946Z,37.13
2018-06-11T11:32:28.493Z,36.70
2018-06-11T11:34:55.897Z,38.70
2018-06-11T11:37:23.335Z,33.73
2018-06-11T11:39:50.765Z,35.87
2018-06-11T11:42:18.283Z,36.30
2018-06-11T11:44:45.715Z,34.83
2018-06-11T11:47:13.132Z,36.50
2018-06-11T11:49:40.631Z,36.27
2018-06-11T11:52:08.043Z,37.37
2018-06-11T11:54:35.508Z,36.97
2018-06-11T11:57:03.045Z,37.10
2018-06-11T11:59:30.571Z,34.77
2018-06-11T12:01:58.014Z,37.10
2018-06-11T12:04:25.447Z,37.47
2018-06-11T12:06:52.878Z,35.93
2018-06-11T12:09:20.344Z,35.33
2018-06-11T12:11:47.924Z,35.77
2018-06-11T12:14:15.446Z,35.37
2018-06-11T12:16:42.877Z,37.33
2018-06-11T12:19:10.536Z,39.23
2018-06-11T12:21:37.874Z,37.87
2018-06-11T12:24:05.348Z,37.90
2018-06-11T12:26:32.911Z,36.73
2018-06-11T12:29:00.460Z,37.80
2018-06-11T12:31:27.877Z,37.40
2018-06-11T12:33:55.460Z,37.87
2018-06-11T12:36:23.027Z,38.10
2018-06-11T12:38:50.634Z,38.37
2018-06-11T12:41:18.147Z,37.87
2018-06-11T12:43:45.662Z,39.67
2018-06-11T12:46:13.171Z,36.27
2018-06-11T12:48:40.670Z,36.63
2018-06-11T12:51:08.253Z,39.10
2018-06-11T12:53:35.782Z,36.50
2018-06-11T12:56:03.363Z,40.87
2018-06-11T12:58:30.754Z,40.33
2018-06-11T13:00:58.226Z,40.67
2018-06-11T13:03:26.281Z,38.73
2018-06-11T13:05:53.792Z,37.23
2018-06-11T13:08:21.316Z,40.20
2018-06-11T13:10:48.820Z,40.10
2018-06-11T13:13:16.251Z,38.33
2018-06-11T13:15:44.457Z,39.57
2018-06-11T13:18:11.971Z,38.50
2018-06-11T13:20:39.406Z,39.13
2018-06-11T13:23:06.787Z,37.73
2018-06-11T13:25:34.281Z,38.77
2018-06-11T13:28:01.780Z,38.90
2018-06-11T13:30:29.281Z,36.90
2018-06-11T13:32:56.968Z,39.50
2018-06-11T13:35:24.511Z,38.00
2018-06-11T13:37:51.966Z,36.30
2018-06-11T13:40:19.408Z,35.50
2018-06-11T13:42:46.890Z,38.50
2018-06-11T13:45:14.425Z,37.37
2018-06-11T13:47:41.873Z,39.07
2018-06-11T13:50:09.367Z,38.33
2018-06-11T13:52:36.882Z,38.30
2018-06-11T13:55:04.563Z,38.20
2018-06-11T13:57:31.966Z,37.07
2018-06-11T13:59:59.372Z,38.77
2018-06-11T14:02:26.824Z,40.37
2018-06-11T14:04:54.219Z,38.63
2018-06-11T14:07:21.955Z,41.20
2018-06-11T14:09:49.390Z,39.73
2018-06-11T14:12:16.863Z,37.50
2018-06-11T14:14:44.319Z,39.03
2018-06-11T14:17:11.678Z,36.40
2018-06-11T14:19:39.197Z,37.83
2018-06-11T14:22:06.648Z,38.00
2018-06-11T14:24:34.221Z,37.43
2018-06-11T14:27:01.735Z,37.47
2018-06-11T14:29:29.247Z,38.63
2018-06-11T14:31:56.724Z,39.07
2018-06-11T14:34:24.269Z,37.80
2018-06-11T14:36:51.721Z,39.20
2018-06-11T14:39:19.534Z,37.77
2018-06-11T14:41:47.195Z,37.47
2018-06-11T14:44:14.731Z,38.93
2018-06-11T14:46:42.230Z,39.40
2018-06-11T14:49:10.196Z,38.60
2018-06-11T14:51:37.779Z,40.33
2018-06-11T14:54:05.179Z,38.70
2018-06-11T14:56:32.694Z,39.97
2018-06-11T14:59:00.160Z,43.27
2018-06-11T15:01:27.867Z,71.07
2018-06-11T15:03:55.654Z,182.93
2018-06-11T15:06:23.091Z,254.23
2018-06-11T15:08:50.572Z,45.27
2018-06-11T15:11:18.048Z,135.50
2018-06-11T15:13:45.477Z,47.77
2018-06-11T15:16:13.032Z,45.80
2018-06-11T15:18:40.517Z,44.07
2018-06-11T15:21:07.936Z,46.40
2018-06-11T15:23:35.487Z,42.63
2018-06-11T15:26:03.054Z,43.07
2018-06-11T15:28:30.575Z,43.37
2018-06-11T15:30:58.150Z,44.87
2018-06-11T15:33:25.678Z,43.93
2018-06-11T15:35:53.164Z,44.73
2018-06-11T15:38:20.736Z,44.43
2018-06-11T15:40:48.507Z,43.67
2018-06-11T15:43:16.037Z,42.47
2018-06-11T15:45:43.571Z,41.80
2018-06-11T15:48:11.040Z,39.80
2018-06-11T15:50:38.490Z,40.77
2018-06-11T15:53:05.913Z,40.60
2018-06-11T15:55:33.291Z,40.70
2018-06-11T15:58:00.758Z,42.63
2018-06-11T16:00:28.278Z,42.40
2018-06-11T16:02:55.686Z,42.30
2018-06-11T16:05:23.405Z,40.03
2018-06-11T16:07:50.969Z,41.27
2018-06-11T16:10:18.445Z,42.73
2018-06-11T16:12:45.974Z,40.93
2018-06-11T16:15:13.566Z,38.70
2018-06-11T16:17:40.941Z,42.00
2018-06-11T16:20:09.040Z,41.73
2018-06-11T16:22:36.497Z,42.93
2018-06-11T16:25:04.298Z,42.87
2018-06-11T16:27:31.910Z,42.00
2018-06-11T16:29:59.335Z,42.00
2018-06-11T16:32:26.959Z,39.67
2018-06-11T16:34:54.350Z,40.57
2018-06-11T16:37:21.852Z,37.77
2018-06-11T16:39:49.311Z,38.70
2018-06-11T16:42:16.999Z,37.93
2018-06-11T16:44:44.428Z,39.23
2018-06-11T16:47:11.909Z,38.50
2018-06-11T16:49:39.331Z,38.60
2018-06-11T16:52:06.790Z,38.87
2018-06-11T16:54:34.244Z,37.00
2018-06-11T16:57:01.652Z,38.30
2018-06-11T16:59:29.258Z,38.30
2018-06-11T17:01:56.710Z,37.97
2018-06-11T17:04:24.183Z,34.07
2018-06-11T17:06:51.605Z,34.17
2018-06-11T17:09:19.132Z,34.50
2018-06-11T17:11:46.674Z,34.13
2018-06-11T17:14:15.083Z,32.33
2018-06-11T17:16:42.459Z,31.90
2018-06-11T17:19:09.898Z,33.13
2018-06-11T17:21:37.912Z,31.10
2018-06-11T17:24:05.504Z,32.30
2018-06-11T17:26:32.978Z,30.77
2018-06-11T17:29:00.547Z,32.30
2018-06-11T17:31:28.148Z,32.47
2018-06-11T17:33:55.859Z,32.03
2018-06-11T17:36:23.309Z,28.90
2018-06-11T17:38:50.837Z,32.03
2018-06-11T17:41:18.352Z,30.17
2018-06-11T17:43:45.911Z,30.33
2018-06-11T17:46:13.458Z,28.00
2018-06-11T17:48:40.935Z,30.60
2018-06-11T17:51:08.496Z,28.57
2018-06-11T17:53:36.083Z,27.07
2018-06-11T17:56:03.618Z,27.97
2018-06-11T17:58:31.662Z,29.13
2018-06-11T18:00:59.107Z,32.00
2018-06-11T18:03:26.679Z,28.40
2018-06-11T18:05:54.109Z,29.33
2018-06-11T18:08:21.628Z,30.27
2018-06-11T18:10:49.187Z,27.77
2018-06-11T18:13:16.701Z,29.70
2018-06-11T18:15:44.220Z,29.90
2018-06-11T18:18:11.627Z,31.30
2018-06-11T18:20:39.159Z,29.33
2018-06-11T18:23:06.642Z,27.50
2018-06-11T18:25:34.322Z,28.07
2018-06-11T18:28:02.084Z,28.77
2018-06-11T18:30:29.613Z,28.40
2018-06-11T18:32:57.149Z,27.43
2018-06-11T18:35:24.800Z,27.57
2018-06-11T18:37:52.525Z,28.13
2018-06-11T18:40:20.187Z,27.90
2018-06-11T18:42:47.820Z,28.20
2018-06-11T18:45:15.312Z,27.90
2018-06-11T18:47:42.875Z,27.60
2018-06-11T18:50:10.628Z,28.20
2018-06-11T18:52:38.370Z,30.60
2018-06-11T18:55:05.883Z,28.80
2018-06-11T18:57:33.387Z,27.87
2018-06-11T19:00:01.131Z,30.40
2018-06-11T19:02:29.705Z,32.20
2018-06-11T19:04:57.111Z,30.73
2018-06-11T19:07:24.769Z,31.80
2018-06-11T19:09:52.404Z,30.20
2018-06-11T19:12:20.095Z,31.60
2018-06-11T19:14:47.653Z,31.70
2018-06-11T19:17:15.107Z,30.10
2018-06-11T19:19:43.426Z,31.10
2018-06-11T19:22:10.958Z,30.53
2018-06-11T19:24:38.681Z,29.87
2018-06-11T19:27:06.331Z,30.83
2018-06-11T19:29:33.998Z,32.00
2018-06-11T19:32:01.726Z,30.60
2018-06-11T19:34:29.305Z,33.90
2018-06-11T19:36:56.936Z,32.80
2018-06-11T19:39:24.481Z,32.07
2018-06-11T19:41:52.296Z,31.20
2018-06-11T19:44:20.077Z,34.10
2018-06-11T19:46:48.825Z,32.43
2018-06-11T19:49:16.470Z,34.87
2018-06-11T19:51:44.221Z,33.40
2018-06-11T19:54:13.078Z,35.07
2018-06-11T19:56:40.731Z,33.70
2018-06-11T19:59:08.519Z,34.77
2018-06-11T20:01:36.233Z,34.00
2018-06-11T20:04:04.331Z,33.43
2018-06-11T20:06:32.347Z,34.03
2018-06-11T20:08:59.940Z,32.90
2018-06-11T20:11:28.025Z,35.40
2018-06-11T20:13:55.730Z,35.07
2018-06-11T20:16:23.494Z,34.40
2018-06-11T20:18:51.148Z,33.93
2018-06-11T20:21:18.936Z,33.07
2018-06-11T20:23:46.590Z,32.20
2018-06-11T20:26:15.342Z,33.43
2018-06-11T20:28:43.078Z,33.60
2018-06-11T20:31:11.085Z,37.20
2018-06-11T20:33:38.851Z,37.40
2018-06-11T20:36:06.702Z,36.70
2018-06-11T20:38:34.385Z,36.40
2018-06-11T20:41:02.079Z,35.37
2018-06-11T20:43:29.712Z,34.77
2018-06-11T20:45:57.429Z,33.20
2018-06-11T20:48:25.065Z,32.40
2018-06-11T20:50:52.756Z,29.67
2018-06-11T20:53:20.430Z,25.40
2018-06-11T20:55:48.068Z,24.63
2018-06-11T20:58:15.730Z,24.50
2018-06-11T21:00:43.435Z,23.83
2018-06-11T21:03:11.222Z,19.20
2018-06-11T21:05:38.866Z,19.77
2018-06-11T21:08:06.531Z,19.83
2018-06-11T21:10:34.161Z,19.30
2018-06-11T21:13:01.850Z,20.63
2018-06-11T21:15:29.535Z,20.60
2018-06-11T21:17:57.130Z,19.00
2018-06-11T21:20:24.823Z,17.30
2018-06-11T21:22:52.493Z,18.13
2018-06-11T21:25:20.163Z,18.60
2018-06-11T21:27:48.770Z,18.27
2018-06-11T21:30:16.748Z,21.57
2018-06-11T21:32:44.645Z,20.47
2018-06-11T21:35:12.351Z,21.20
2018-06-11T21:37:40.106Z,18.90
2018-06-11T21:40:07.773Z,18.67
2018-06-11T21:42:35.388Z,18.20
2018-06-11T21:45:03.114Z,17.30
2018-06-11T21:47:30.859Z,17.77
2018-06-11T21:49:58.415Z,17.03
2018-06-11T21:52:26.014Z,19.03
2018-06-11T21:54:53.640Z,17.50
2018-06-11T21:57:21.247Z,18.60
2018-06-11T21:59:48.991Z,20.63
2018-06-11T22:02:16.732Z,16.67
2018-06-11T22:04:44.419Z,16.53
2018-06-11T22:07:12.176Z,17.13
2018-06-11T22:09:39.804Z,17.27
2018-06-11T22:12:07.397Z,17.40
2018-06-11T22:14:35.121Z,18.03
2018-06-11T22:17:02.753Z,16.60
2018-06-11T22:19:30.505Z,16.57
2018-06-11T22:21:58.386Z,17.00
2018-06-11T22:24:26.458Z,18.50
2018-06-11T22:26:54.286Z,16.80
2018-06-11T22:29:22.092Z,15.27
2018-06-11T22:31:49.738Z,16.37
2018-06-11T22:34:17.486Z,14.87
2018-06-11T22:36:45.203Z,16.20
2018-06-11T22:39:12.812Z,14.83
2018-06-11T22:41:40.599Z,14.60
2018-06-11T22:44:08.233Z,14.83
2018-06-11T22:46:36.123Z,14.30
2018-06-11T22:49:03.820Z,14.30
2018-06-11T22:51:31.380Z,14.00
2018-06-11T22:53:59.122Z,13.20
2018-06-11T22:56:26.980Z,14.70
2018-06-11T22:58:54.701Z,14.43
2018-06-11T23:01:22.493Z,13.73
2018-06-11T23:03:50.425Z,13.37
2018-06-11T23:06:18.152Z,14.37
2018-06-11T23:08:45.677Z,13.90
2018-06-11T23:11:13.378Z,13.80
2018-06-11T23:13:41.159Z,13.43
2018-06-11T23:16:08.961Z,13.97
2018-06-11T23:18:36.761Z,13.27
2018-06-11T23:21:04.817Z,13.23
2018-06-11T23:23:32.433Z,14.50
2018-06-11T23:26:00.297Z,13.40
2018-06-11T23:28:28.018Z,14.60
2018-06-11T23:30:56.502Z,15.57
2018-06-11T23:33:24.168Z,14.27
2018-06-11T23:35:51.887Z,14.30
2018-06-11T23:38:19.585Z,14.70
2018-06-11T23:40:47.268Z,14.97
2018-06-11T23:43:14.913Z,13.77
2018-06-11T23:45:42.562Z,13.97
2018-06-11T23:48:10.233Z,14.10
2018-06-11T23:50:38.053Z,13.67
2018-06-11T23:53:05.870Z,13.57
2018-06-11T23:55:33.440Z,13.80
2018-06-11T23:58:01.224Z,13.90
